Time;durP1;ratioP1;P1;durP2;ratioP2;P2;SDS_P1;SDS_P2;PMS_P1;PMS_P2;Temp;Humidity;BMP_temperature;BMP_pressure;BME280_temperature;BME280_humidity;BME280_pressure;Samples;Min_cycle;Max_cycle;Signal;HPM_P1;HPM_P2
2024/04/25 00:01:04;;;;;;;4.43;3.50;;;6.60;99.90;;;;;;5404016;26;20299;-68
2024/04/25 00:03:30;;;;;;;3.30;3.00;;;6.60;99.90;;;;;;5403475;26;20659;-67
2024/04/25 00:05:56;;;;;;;3.77;2.77;;;6.70;99.90;;;;;;5403814;26;20270;-69
2024/04/25 00:08:22;;;;;;;3.40;3.13;;;6.90;99.90;;;;;;5403437;26;20517;-69
2024/04/25 00:10:51;;;;;;;3.43;3.10;;;6.70;99.90;;;;;;5403579;26;20319;-68
2024/04/25 00:13:17;;;;;;;4.30;2.70;;;6.70;99.90;;;;;;5403551;26;20299;-67
2024/04/25 00:15:43;;;;;;;4.67;3.27;;;6.70;99.90;;;;;;5403426;26;20431;-68
2024/04/25 00:18:08;;;;;;;3.40;3.10;;;6.70;99.90;;;;;;5402758;26;20607;-69
2024/04/25 00:20:34;;;;;;;3.20;2.70;;;6.80;99.90;;;;;;5403647;26;20280;-68
2024/04/25 00:23:00;;;;;;;4.67;3.40;;;6.70;99.90;;;;;;5403758;26;20215;-68
2024/04/25 00:25:25;;;;;;;4.30;2.97;;;6.70;99.90;;;;;;5403641;26;20262;-67
2024/04/25 00:27:51;;;;;;;3.33;3.00;;;6.80;99.90;;;;;;5403152;26;20273;-69
2024/04/25 00:30:17;;;;;;;5.10;3.30;;;6.70;99.90;;;;;;5403475;26;20229;-68
2024/04/25 00:32:43;;;;;;;3.60;3.00;;;6.50;99.90;;;;;;5404702;26;20805;-68
2024/04/25 00:35:08;;;;;;;4.00;3.20;;;6.60;99.90;;;;;;5407448;26;20334;-69
2024/04/25 00:37:34;;;;;;;3.10;2.80;;;6.70;99.90;;;;;;5404419;26;20229;-68
2024/04/25 00:40:01;;;;;;;3.60;3.17;;;6.70;99.90;;;;;;5402017;26;20221;-70
2024/04/25 00:42:27;;;;;;;3.83;2.80;;;6.70;99.90;;;;;;5401295;26;20810;-68
2024/04/25 00:44:53;;;;;;;3.53;3.20;;;6.60;99.90;;;;;;5402885;26;20464;-67
2024/04/25 00:47:21;;;;;;;3.70;3.00;;;6.50;99.90;;;;;;5402653;26;20549;-69
2024/04/25 00:49:48;;;;;;;2.97;2.67;;;6.50;99.90;;;;;;5402643;26;20278;-67
2024/04/25 00:52:19;;;;;;;4.07;3.67;;;6.60;99.90;;;;;;5403445;26;20506;-67
2024/04/25 00:54:44;;;;;;;3.60;3.30;;;6.40;99.90;;;;;;5402972;26;20652;-70
2024/04/25 00:57:15;;;;;;;4.00;3.30;;;6.40;99.90;;;;;;5402620;26;21264;-69
2024/04/25 00:59:49;;;;;;;3.90;3.50;;;6.40;99.90;;;;;;5402998;26;20230;-68
2024/04/25 01:02:15;;;;;;;4.20;3.60;;;6.50;99.90;;;;;;5402467;26;20429;-68
2024/04/25 01:04:43;;;;;;;3.70;3.40;;;6.60;99.90;;;;;;5402783;26;20503;-68
2024/04/25 01:07:09;;;;;;;3.87;3.50;;;6.50;99.90;;;;;;5404880;26;20455;-70
2024/04/25 01:09:35;;;;;;;4.70;4.10;;;6.50;99.90;;;;;;5405967;26;21042;-70
2024/04/25 01:12:02;;;;;;;3.57;2.87;;;6.50;99.90;;;;;;5406201;26;20441;-70
2024/04/25 01:14:28;;;;;;;3.80;3.50;;;6.50;99.90;;;;;;5404278;26;20467;-68
2024/04/25 01:16:54;;;;;;;3.70;3.33;;;6.50;99.90;;;;;;5406266;26;20524;-69
2024/04/25 01:19:20;;;;;;;3.87;3.57;;;6.50;99.90;;;;;;5405671;26;20509;-69
2024/04/25 01:21:48;;;;;;;4.13;3.53;;;6.30;99.90;;;;;;5405926;26;20225;-69
2024/04/25 01:24:20;;;;;;;4.97;4.17;;;6.20;99.90;;;;;;5406015;26;20968;-69
2024/04/25 01:26:48;;;;;;;4.00;3.70;;;6.10;99.90;;;;;;5405933;26;20469;-67
2024/04/25 01:29:14;;;;;;;3.57;3.27;;;6.20;99.90;;;;;;5406168;26;20463;-68
2024/04/25 01:31:41;;;;;;;8.63;4.00;;;6.20;99.90;;;;;;5405815;26;20447;-68
2024/04/25 01:34:07;;;;;;;3.70;3.40;;;6.20;99.90;;;;;;5405694;26;20442;-68
2024/04/25 01:36:37;;;;;;;5.20;3.90;;;6.10;99.90;;;;;;5405861;26;20495;-67
2024/04/25 01:39:04;;;;;;;3.53;3.17;;;6.20;99.90;;;;;;5405805;26;20272;-69
2024/04/25 01:41:29;;;;;;;4.10;3.70;;;6.30;99.90;;;;;;5405568;26;20507;-68
2024/04/25 01:43:55;;;;;;;3.50;3.20;;;6.40;99.90;;;;;;5405674;26;20435;-69
2024/04/25 01:46:20;;;;;;;3.90;3.60;;;6.40;99.90;;;;;;5405073;26;20219;-69
2024/04/25 01:48:46;;;;;;;4.33;3.93;;;6.50;99.90;;;;;;5405061;26;20326;-68
2024/04/25 01:51:12;;;;;;;4.87;4.37;;;6.60;99.90;;;;;;5405177;26;20230;-68
2024/04/25 01:53:38;;;;;;;4.50;3.50;;;6.70;99.90;;;;;;5405107;26;20821;-69
2024/04/25 01:56:03;;;;;;;4.10;3.80;;;6.70;99.90;;;;;;5405391;26;20217;-68
2024/04/25 01:58:29;;;;;;;5.13;3.57;;;6.80;99.90;;;;;;5405639;26;20263;-67
2024/04/25 02:00:54;;;;;;;4.93;3.37;;;6.70;99.90;;;;;;5405410;26;20224;-69
2024/04/25 02:03:20;;;;;;;4.37;3.97;;;6.70;99.90;;;;;;5405394;26;20218;-68
2024/04/25 02:05:45;;;;;;;5.20;3.77;;;6.70;99.90;;;;;;5405362;26;20220;-69
2024/04/25 02:08:11;;;;;;;4.33;3.50;;;6.70;99.90;;;;;;5404930;26;20307;-68
2024/04/25 02:10:36;;;;;;;4.80;3.97;;;6.80;99.90;;;;;;5405358;26;20344;-69
2024/04/25 02:13:02;;;;;;;4.53;3.77;;;6.80;99.90;;;;;;5404964;26;20329;-68
2024/04/25 02:15:28;;;;;;;5.30;4.27;;;6.80;99.90;;;;;;5405399;26;20267;-69
2024/04/25 02:17:53;;;;;;;3.87;3.50;;;6.80;99.90;;;;;;5403993;26;20283;-68
2024/04/25 02:25:47;;;;;;;3.60;3.30;;;6.90;99.90;;;;;;5405278;26;20880;-68
2024/04/25 02:28:13;;;;;;;4.07;3.47;;;6.90;99.90;;;;;;5404642;26;20448;-68
2024/04/25 02:30:38;;;;;;;3.73;3.43;;;6.90;99.90;;;;;;5405302;26;20224;-69
2024/04/25 02:33:04;;;;;;;3.10;2.90;;;6.70;99.90;;;;;;5404834;26;20219;-69
2024/04/25 02:35:30;;;;;;;3.30;3.00;;;6.60;99.90;;;;;;5433263;26;20260;-68
2024/04/25 02:37:55;;;;;;;3.03;2.73;;;6.70;99.90;;;;;;5404593;26;20283;-68
2024/04/25 02:40:21;;;;;;;3.60;3.30;;;6.80;99.90;;;;;;5404856;26;20240;-70
2024/04/25 02:42:46;;;;;;;3.57;3.27;;;6.90;99.90;;;;;;5404762;26;20364;-69
2024/04/25 02:45:12;;;;;;;3.17;2.93;;;6.90;99.90;;;;;;5404703;26;20220;-69
2024/04/25 02:47:37;;;;;;;4.07;3.47;;;6.80;99.90;;;;;;5404598;26;22032;-68
2024/04/25 02:50:03;;;;;;;2.97;2.63;;;6.80;99.90;;;;;;5404586;26;20268;-69
2024/04/25 02:52:29;;;;;;;3.17;2.87;;;6.80;99.90;;;;;;5404753;26;20684;-68
2024/04/25 02:54:56;;;;;;;4.70;2.70;;;6.80;99.90;;;;;;5404540;26;20235;-69
2024/04/25 02:57:22;;;;;;;5.10;3.00;;;6.70;99.90;;;;;;5404619;26;20231;-68
2024/04/25 02:59:47;;;;;;;3.90;3.60;;;6.70;99.90;;;;;;5404219;26;20519;-67
2024/04/25 03:02:13;;;;;;;4.00;3.60;;;6.20;99.90;;;;;;5404731;26;20443;-68
2024/04/25 03:04:38;;;;;;;3.60;3.30;;;6.40;99.90;;;;;;5404258;26;20851;-69
2024/04/25 03:07:04;;;;;;;3.53;3.23;;;6.40;99.90;;;;;;5404390;26;21496;-69
2024/04/25 03:09:30;;;;;;;3.13;2.93;;;6.50;99.90;;;;;;5404337;26;20226;-69
2024/04/25 03:11:55;;;;;;;5.00;3.57;;;6.60;99.90;;;;;;5404562;26;20266;-68
2024/04/25 03:14:21;;;;;;;5.03;4.10;;;6.50;99.90;;;;;;5404456;26;20499;-68
2024/04/25 03:16:47;;;;;;;3.53;3.03;;;6.40;99.90;;;;;;5404174;26;20342;-68
2024/04/25 03:19:13;;;;;;;3.10;2.80;;;6.60;99.90;;;;;;5404243;26;20446;-69
2024/04/25 03:21:39;;;;;;;3.83;3.53;;;6.60;99.90;;;;;;5404172;26;20218;-68
2024/04/25 03:24:05;;;;;;;3.50;3.20;;;6.60;99.90;;;;;;5403966;26;20519;-69
2024/04/25 03:26:30;;;;;;;4.73;3.77;;;6.60;99.90;;;;;;5404085;26;20225;-69
2024/04/25 03:28:56;;;;;;;5.47;3.80;;;6.60;99.90;;;;;;5403241;26;20260;-69
2024/04/25 03:31:21;;;;;;;3.63;3.33;;;6.70;99.90;;;;;;5403763;26;20230;-68
2024/04/25 03:33:47;;;;;;;5.27;3.63;;;6.70;99.90;;;;;;5404100;26;20277;-68
2024/04/25 03:36:13;;;;;;;3.93;3.60;;;6.50;99.90;;;;;;5404078;26;20225;-69
2024/04/25 03:38:38;;;;;;;5.03;4.53;;;6.50;99.90;;;;;;5404044;26;20231;-68
2024/04/25 03:41:04;;;;;;;4.10;3.70;;;6.60;99.90;;;;;;5403691;26;20611;-69
2024/04/25 03:43:29;;;;;;;3.80;3.50;;;6.50;99.90;;;;;;5404041;26;20249;-69
2024/04/25 03:45:55;;;;;;;4.30;3.90;;;6.60;99.90;;;;;;5403801;26;20279;-68
2024/04/25 03:48:20;;;;;;;4.17;3.70;;;6.60;99.90;;;;;;5403624;26;20567;-67
2024/04/25 03:50:46;;;;;;;5.33;4.40;;;6.60;99.90;;;;;;5403036;26;20224;-69
2024/04/25 03:53:11;;;;;;;4.13;3.83;;;6.60;99.90;;;;;;5403378;26;20836;-68
2024/04/25 03:55:37;;;;;;;5.27;4.77;;;6.60;99.90;;;;;;5403163;26;20729;-68
2024/04/25 03:58:03;;;;;;;4.33;3.93;;;6.50;99.90;;;;;;5402977;26;20241;-69
2024/04/25 04:00:28;;;;;;;6.70;4.53;;;6.70;99.90;;;;;;5404078;26;20262;-70
2024/04/25 04:02:54;;;;;;;5.07;4.00;;;6.70;99.90;;;;;;5403524;26;20598;-68
2024/04/25 04:05:20;;;;;;;6.50;4.07;;;6.70;99.90;;;;;;5403770;26;20225;-69
2024/04/25 04:07:45;;;;;;;5.63;4.63;;;6.80;99.90;;;;;;5401429;26;20610;-67
2024/04/25 04:10:11;;;;;;;5.57;5.07;;;6.60;99.90;;;;;;5403743;26;20224;-69
2024/04/25 04:12:36;;;;;;;5.67;4.53;;;6.50;99.90;;;;;;5403320;26;20267;-70
2024/04/25 04:15:03;;;;;;;4.27;3.87;;;6.50;99.90;;;;;;5403479;26;20678;-69
2024/04/25 04:17:30;;;;;;;5.03;4.63;;;6.40;99.90;;;;;;5403334;26;20277;-68
2024/04/25 04:19:56;;;;;;;4.50;4.10;;;6.40;99.90;;;;;;5402779;26;20572;-68
2024/04/25 04:22:21;;;;;;;5.00;3.83;;;6.40;99.90;;;;;;5403238;26;20527;-69
2024/04/25 04:24:47;;;;;;;4.00;3.57;;;6.50;99.90;;;;;;5402981;26;20844;-68
2024/04/25 04:27:12;;;;;;;4.93;4.30;;;6.50;99.90;;;;;;5403124;26;20728;-70
2024/04/25 04:29:38;;;;;;;4.30;3.90;;;6.30;99.90;;;;;;5402978;26;20301;-68
2024/04/25 04:32:04;;;;;;;6.70;4.20;;;6.50;99.90;;;;;;5403319;26;20228;-69
2024/04/25 04:34:29;;;;;;;5.63;3.70;;;6.60;99.90;;;;;;5402902;26;20222;-68
2024/04/25 04:36:55;;;;;;;4.77;4.30;;;6.50;99.90;;;;;;5403012;26;20255;-69
2024/04/25 04:39:21;;;;;;;3.60;3.30;;;6.70;99.90;;;;;;5402880;26;20216;-69
2024/04/25 04:41:47;;;;;;;4.33;3.90;;;6.60;99.90;;;;;;5399309;26;20685;-69
2024/04/25 04:44:13;;;;;;;4.13;3.73;;;6.80;99.90;;;;;;5402812;26;20504;-69
2024/04/25 04:46:39;;;;;;;4.20;3.47;;;7.00;99.90;;;;;;5402908;26;20591;-69
2024/04/25 04:49:05;;;;;;;4.73;3.60;;;7.00;99.90;;;;;;5402355;26;20492;-69
2024/04/25 04:51:30;;;;;;;5.10;4.60;;;7.10;99.90;;;;;;5402609;26;20323;-69
2024/04/25 04:53:56;;;;;;;5.13;3.23;;;7.00;99.90;;;;;;5402430;26;20259;-68
2024/04/25 04:56:22;;;;;;;4.67;4.20;;;7.10;99.90;;;;;;5402913;26;20328;-69
2024/04/25 04:58:47;;;;;;;6.70;4.03;;;7.10;99.90;;;;;;5402385;26;20234;-67
2024/04/25 05:01:13;;;;;;;5.23;4.73;;;7.20;99.90;;;;;;5402518;26;20338;-67
2024/04/25 05:03:38;;;;;;;7.00;3.83;;;7.20;99.90;;;;;;5402553;26;20607;-69
2024/04/25 05:06:05;;;;;;;4.23;3.87;;;7.10;99.90;;;;;;5402249;26;20649;-68
2024/04/25 05:08:31;;;;;;;4.40;4.00;;;7.20;99.90;;;;;;5402345;26;21120;-68
2024/04/25 05:10:57;;;;;;;4.10;3.43;;;7.20;99.90;;;;;;5402378;26;20476;-68
2024/04/25 05:13:23;;;;;;;4.20;3.90;;;7.30;99.90;;;;;;5402737;26;20445;-68
2024/04/25 05:15:49;;;;;;;4.80;4.40;;;7.20;99.90;;;;;;5402549;26;20865;-68
2024/04/25 05:18:14;;;;;;;4.70;4.30;;;7.20;99.90;;;;;;5401863;26;20678;-69
2024/04/25 05:20:40;;;;;;;5.40;4.70;;;7.10;99.90;;;;;;5401093;26;20237;-68
2024/04/25 05:23:07;;;;;;;5.13;4.30;;;7.00;99.90;;;;;;5401430;26;20232;-67
2024/04/25 05:25:33;;;;;;;7.13;5.20;;;7.10;99.90;;;;;;5401462;26;20228;-69
2024/04/25 05:27:58;;;;;;;8.37;5.00;;;7.20;99.90;;;;;;5401767;26;21086;-68
2024/04/25 05:30:24;;;;;;;4.23;3.90;;;7.20;99.90;;;;;;5402281;26;20268;-69
2024/04/25 05:32:50;;;;;;;5.07;4.10;;;7.30;99.90;;;;;;5401660;26;20351;-69
2024/04/25 05:35:19;;;;;;;5.30;4.80;;;7.40;99.90;;;;;;5401697;26;20451;-69
2024/04/25 05:37:45;;;;;;;5.47;4.97;;;7.40;99.90;;;;;;5402203;26;20872;-68
2024/04/25 05:40:11;;;;;;;5.30;4.57;;;7.20;99.90;;;;;;5402003;26;20444;-68
2024/04/25 05:42:36;;;;;;;6.73;4.30;;;7.40;99.90;;;;;;5401966;26;20304;-71
2024/04/25 05:45:03;;;;;;;4.67;4.10;;;7.60;99.90;;;;;;5400305;26;20654;-68
2024/04/25 05:47:28;;;;;;;7.00;4.53;;;7.50;99.90;;;;;;5401714;26;20235;-68
2024/04/25 05:49:54;;;;;;;4.50;4.20;;;7.60;99.90;;;;;;5401635;26;20971;-68
2024/04/25 05:52:20;;;;;;;5.93;4.70;;;7.60;99.90;;;;;;5402885;26;20698;-69
2024/04/25 05:54:48;;;;;;;4.60;4.20;;;7.60;99.90;;;;;;5404557;26;20239;-68
2024/04/25 05:57:14;;;;;;;5.00;4.47;;;7.60;99.90;;;;;;5405392;26;20460;-69
2024/04/25 05:59:40;;;;;;;5.17;4.60;;;7.60;99.90;;;;;;5404546;26;20453;-68
2024/04/25 06:02:07;;;;;;;5.77;4.70;;;7.50;99.90;;;;;;5405297;26;20544;-69
2024/04/25 06:04:33;;;;;;;5.60;4.60;;;7.50;99.90;;;;;;5405320;26;20574;-69
2024/04/25 06:06:59;;;;;;;8.63;4.60;;;7.70;99.90;;;;;;5405375;26;21092;-69
2024/04/25 06:09:25;;;;;;;6.57;5.97;;;7.80;99.90;;;;;;5404659;26;20904;-69
2024/04/25 06:11:51;;;;;;;5.60;4.70;;;7.80;99.90;;;;;;5404654;26;20980;-70
2024/04/25 06:14:17;;;;;;;7.50;5.00;;;8.00;99.90;;;;;;5404369;26;20671;-69
2024/04/25 06:16:42;;;;;;;5.63;5.00;;;7.90;99.90;;;;;;5400097;26;21072;-69
2024/04/25 06:19:08;;;;;;;5.33;4.43;;;8.10;99.90;;;;;;5404208;26;20452;-68
2024/04/25 06:21:34;;;;;;;5.47;4.87;;;8.10;99.90;;;;;;5403891;26;20340;-67
2024/04/25 06:24:02;;;;;;;4.93;4.40;;;7.90;99.90;;;;;;5403971;26;20232;-68
2024/04/25 06:26:28;;;;;;;4.73;4.20;;;7.80;99.90;;;;;;5404037;26;20457;-69
2024/04/25 06:28:54;;;;;;;5.37;4.43;;;7.90;99.90;;;;;;5404327;26;20870;-68
2024/04/25 06:31:19;;;;;;;5.20;4.30;;;7.80;99.90;;;;;;5404889;26;20505;-68
2024/04/25 06:33:45;;;;;;;7.00;4.70;;;7.90;99.90;;;;;;5404001;26;20270;-67
2024/04/25 06:36:11;;;;;;;5.50;4.80;;;8.00;99.90;;;;;;5404305;26;20396;-68
2024/04/25 06:38:37;;;;;;;5.97;4.50;;;8.10;99.90;;;;;;5404254;26;20231;-67
2024/04/25 06:41:02;;;;;;;5.40;4.80;;;8.10;99.90;;;;;;5404322;26;20513;-67
2024/04/25 06:43:28;;;;;;;4.83;4.40;;;8.20;99.90;;;;;;5404298;26;20213;-68
2024/04/25 06:45:53;;;;;;;5.93;4.67;;;8.20;99.90;;;;;;5404502;26;20224;-69
2024/04/25 06:48:19;;;;;;;5.37;4.70;;;8.30;99.90;;;;;;5404257;26;20684;-69
2024/04/25 06:50:44;;;;;;;5.13;4.63;;;8.10;99.90;;;;;;5403456;26;20270;-69
2024/04/25 06:53:10;;;;;;;5.73;4.90;;;8.40;99.90;;;;;;5402465;26;20230;-68
2024/04/25 06:55:36;;;;;;;6.00;5.40;;;8.40;99.90;;;;;;5403864;26;20651;-67
2024/04/25 06:58:02;;;;;;;5.70;4.33;;;8.50;99.90;;;;;;5404397;26;20228;-68
2024/04/25 07:00:27;;;;;;;5.63;4.60;;;8.40;99.90;;;;;;5400923;26;20704;-67
2024/04/25 07:02:53;;;;;;;4.67;4.17;;;8.20;99.90;;;;;;5402431;26;20875;-68
2024/04/25 07:05:19;;;;;;;5.87;4.40;;;8.20;99.90;;;;;;5403176;26;20266;-68
2024/04/25 07:07:44;;;;;;;4.40;4.00;;;8.10;99.90;;;;;;5403298;26;20385;-69
2024/04/25 07:10:10;;;;;;;6.53;4.07;;;8.30;99.90;;;;;;5403681;26;20424;-68
2024/04/25 07:12:36;;;;;;;4.80;3.67;;;8.50;99.90;;;;;;5404157;26;20228;-70
2024/04/25 07:15:06;;;;;;;5.40;4.17;;;8.80;99.90;;;;;;5404034;26;20442;-72
2024/04/25 07:17:32;;;;;;;4.20;3.90;;;8.80;99.90;;;;;;5403818;26;20527;-70
2024/04/25 07:19:57;;;;;;;4.63;3.73;;;8.90;99.90;;;;;;5404301;26;20798;-69
2024/04/25 07:22:23;;;;;;;4.80;3.90;;;9.20;99.90;;;;;;5403615;26;20537;-68
2024/04/25 07:24:48;;;;;;;4.30;3.67;;;9.00;99.90;;;;;;5403976;26;20214;-70
2024/04/25 07:27:14;;;;;;;6.40;4.00;;;8.60;99.90;;;;;;5403199;26;20306;-70
2024/04/25 07:29:44;;;;;;;5.03;3.50;;;8.80;99.90;;;;;;5403244;26;20219;-70
2024/04/25 07:32:10;;;;;;;4.77;4.03;;;8.70;99.90;;;;;;5403850;26;20221;-71
2024/04/25 07:34:36;;;;;;;3.67;3.07;;;8.80;99.90;;;;;;5403431;26;20438;-68
2024/04/25 07:37:01;;;;;;;4.90;3.17;;;9.20;99.90;;;;;;5403237;26;20526;-69
2024/04/25 07:39:27;;;;;;;4.00;2.87;;;9.10;99.90;;;;;;5403499;26;20322;-71
2024/04/25 07:41:53;;;;;;;4.30;3.53;;;8.90;99.90;;;;;;5402014;26;20388;-70
2024/04/25 07:44:18;;;;;;;4.30;3.40;;;9.20;99.90;;;;;;5403385;26;20231;-70
2024/04/25 07:46:44;;;;;;;4.97;3.00;;;9.40;99.90;;;;;;5402856;26;20455;-71
2024/04/25 07:49:12;;;;;;;4.53;2.97;;;9.50;99.90;;;;;;5403288;26;20284;-72
2024/04/25 07:51:38;;;;;;;5.43;2.90;;;9.40;99.90;;;;;;5403658;26;20288;-73
2024/04/25 07:54:04;;;;;;;3.03;2.50;;;9.20;99.90;;;;;;5402667;26;20796;-72
2024/04/25 07:56:30;;;;;;;4.50;2.70;;;8.90;99.90;;;;;;5403070;26;20447;-73
2024/04/25 07:58:55;;;;;;;4.33;2.60;;;9.00;99.90;;;;;;5403000;26;20752;-71
2024/04/25 08:01:21;;;;;;;3.63;2.50;;;8.80;99.90;;;;;;5403485;26;20301;-73
2024/04/25 08:03:47;;;;;;;7.80;2.60;;;9.20;99.90;;;;;;5403649;26;20220;-72
2024/04/25 08:06:12;;;;;;;3.63;2.00;;;9.00;99.90;;;;;;5403262;26;20217;-74
2024/04/25 08:08:39;;;;;;;3.23;2.50;;;9.00;99.90;;;;;;5403815;26;20231;-75
2024/04/25 08:11:06;;;;;;;3.50;2.67;;;8.80;99.90;;;;;;5403704;26;20276;-73
2024/04/25 08:13:31;;;;;;;7.27;2.80;;;8.70;99.90;;;;;;5403218;26;20454;-72
2024/04/25 08:15:57;;;;;;;4.63;2.43;;;8.70;99.90;;;;;;5403006;26;20971;-71
2024/04/25 08:18:22;;;;;;;3.77;2.63;;;8.70;99.90;;;;;;5403005;26;20247;-74
2024/04/25 08:20:48;;;;;;;2.07;1.87;;;8.90;99.90;;;;;;5402681;26;20218;-70
2024/04/25 08:23:13;;;;;;;3.90;2.50;;;9.00;99.90;;;;;;5402729;26;20294;-73
2024/04/25 08:25:39;;;;;;;4.40;2.90;;;9.00;99.90;;;;;;5402478;26;20275;-70
2024/04/25 08:28:07;;;;;;;3.00;2.27;;;9.00;99.90;;;;;;5402977;26;20571;-72
2024/04/25 08:30:33;;;;;;;5.20;2.80;;;8.70;99.90;;;;;;5403135;26;20561;-73
2024/04/25 08:32:59;;;;;;;4.20;2.80;;;8.80;99.90;;;;;;5402764;26;20896;-74
2024/04/25 08:35:24;;;;;;;3.63;2.50;;;9.10;99.90;;;;;;5402960;26;20277;-73
2024/04/25 08:37:50;;;;;;;8.93;2.90;;;9.40;99.90;;;;;;5402716;26;20264;-72
2024/04/25 08:40:16;;;;;;;4.50;2.33;;;9.70;99.90;;;;;;5402978;26;20566;-72
2024/04/25 08:42:43;;;;;;;4.97;2.97;;;10.10;99.90;;;;;;5402783;26;20259;-75
2024/04/25 08:45:10;;;;;;;3.30;2.73;;;9.70;99.90;;;;;;5402581;26;20247;-71
2024/04/25 08:47:38;;;;;;;3.97;2.70;;;9.40;99.90;;;;;;5402547;26;20797;-71
2024/04/25 08:50:06;;;;;;;4.50;2.30;;;9.40;99.90;;;;;;5402454;26;20454;-71
2024/04/25 08:52:33;;;;;;;5.73;2.10;;;9.60;99.90;;;;;;5402208;26;20543;-71
2024/04/25 08:55:00;;;;;;;5.27;3.00;;;9.70;99.90;;;;;;5402186;26;20453;-70
2024/04/25 08:57:29;;;;;;;6.47;2.47;;;9.80;99.90;;;;;;5402108;26;20955;-71
2024/04/25 08:59:55;;;;;;;3.90;2.37;;;10.00;99.90;;;;;;5401998;26;20847;-71
2024/04/25 09:02:23;;;;;;;4.93;2.70;;;10.30;99.90;;;;;;5402102;26;20438;-70
2024/04/25 09:04:52;;;;;;;3.03;2.20;;;10.30;99.90;;;;;;5402732;26;20552;-72
2024/04/25 09:07:18;;;;;;;6.50;3.10;;;10.00;99.90;;;;;;5403169;26;20539;-74
2024/04/25 09:09:43;;;;;;;4.77;2.60;;;9.70;99.90;;;;;;5402040;26;20832;-70
2024/04/25 09:12:09;;;;;;;3.93;2.13;;;9.70;99.90;;;;;;5402277;26;20800;-73
2024/04/25 09:14:36;;;;;;;4.43;2.43;;;9.80;99.90;;;;;;5404197;26;20258;-76
2024/04/25 09:17:02;;;;;;;3.90;2.70;;;9.70;99.90;;;;;;5402778;26;20286;-70
2024/04/25 09:19:28;;;;;;;3.03;2.50;;;9.50;99.90;;;;;;5402051;26;20456;-70
2024/04/25 09:21:53;;;;;;;3.60;2.53;;;9.40;99.90;;;;;;5401736;26;20214;-69
2024/04/25 09:24:19;;;;;;;3.77;2.40;;;9.60;99.90;;;;;;5402236;26;20213;-70
2024/04/25 09:26:46;;;;;;;2.70;2.23;;;9.70;99.90;;;;;;5401966;26;20225;-73
2024/04/25 09:29:12;;;;;;;3.90;1.97;;;10.00;99.90;;;;;;5405464;26;20235;-73
2024/04/25 09:31:38;;;;;;;4.50;2.30;;;9.90;99.90;;;;;;5405120;26;20494;-72
2024/04/25 09:34:04;;;;;;;2.43;1.73;;;10.10;99.90;;;;;;5405191;26;20437;-70
2024/04/25 09:36:29;;;;;;;3.80;2.10;;;10.20;99.90;;;;;;5405704;26;20528;-73
2024/04/25 09:38:55;;;;;;;4.77;2.80;;;10.10;99.90;;;;;;5404728;26;20219;-72
2024/04/25 09:41:22;;;;;;;6.17;2.47;;;10.00;99.90;;;;;;5405501;26;20259;-74
2024/04/25 09:43:49;;;;;;;2.40;2.20;;;10.00;99.90;;;;;;5405258;26;20321;-72
2024/04/25 09:46:28;;;;;;;3.37;3.07;;;9.80;99.90;;;;;;5405013;26;20508;-73
2024/04/25 09:48:56;;;;;;;5.70;2.70;;;9.80;99.90;;;;;;5405077;26;20520;-74
2024/04/25 09:52:03;;;;;;;3.57;2.17;;;9.80;99.90;;;;;;5405203;26;20966;-70
2024/04/25 09:54:34;;;;;;;3.13;2.50;;;9.80;99.90;;;;;;5405434;26;20442;-72
2024/04/25 09:57:05;;;;;;;5.20;2.17;;;9.60;99.90;;;;;;5403180;26;20472;-74
2024/04/25 09:59:48;;;;;;;3.63;2.30;;;9.40;99.90;;;;;;5404897;26;20537;-72
2024/04/25 10:02:22;;;;;;;4.03;2.63;;;9.70;99.90;;;;;;5404918;26;20434;-75
2024/04/25 10:04:49;;;;;;;2.70;2.10;;;9.90;99.90;;;;;;5405354;26;20515;-72
2024/04/25 10:07:16;;;;;;;4.27;2.30;;;10.20;99.90;;;;;;5404760;26;20519;-74
2024/04/25 10:09:43;;;;;;;2.77;1.33;;;10.60;99.90;;;;;;5404338;26;20442;-75
2024/04/25 10:12:09;;;;;;;3.00;1.73;;;10.60;99.90;;;;;;5406970;26;20438;-74
2024/04/25 10:14:35;;;;;;;3.10;2.13;;;10.50;99.90;;;;;;5404655;26;20827;-71
2024/04/25 10:17:00;;;;;;;2.30;1.47;;;11.10;99.90;;;;;;5405733;26;20278;-72
2024/04/25 10:19:35;;;;;;;3.33;1.53;;;11.50;99.90;;;;;;5405018;26;20276;-72
2024/04/25 10:22:01;;;;;;;3.70;1.47;;;11.50;99.50;;;;;;5404152;26;20243;-72
2024/04/25 10:24:27;;;;;;;3.60;1.33;;;11.70;98.80;;;;;;5404778;26;20487;-72
2024/04/25 10:26:52;;;;;;;2.37;1.53;;;11.80;96.80;;;;;;5404625;26;20275;-71
2024/04/25 10:29:28;;;;;;;2.50;1.90;;;12.30;98.70;;;;;;5404500;26;20388;-72
2024/04/25 10:31:54;;;;;;;2.00;1.80;;;12.10;94.80;;;;;;5404632;26;20225;-69
2024/04/25 10:34:19;;;;;;;4.07;1.63;;;12.10;95.20;;;;;;5405021;26;21021;-72
2024/04/25 10:36:46;;;;;;;2.13;1.63;;;12.60;95.90;;;;;;5404148;26;20300;-71
2024/04/25 10:39:15;;;;;;;2.63;1.30;;;12.40;94.20;;;;;;5404417;26;20578;-70
2024/04/25 10:41:41;;;;;;;2.67;1.50;;;12.40;94.00;;;;;;5405061;26;20571;-73
2024/04/25 10:44:08;;;;;;;3.20;1.43;;;13.20;93.50;;;;;;5404855;26;20437;-73
2024/04/25 10:46:37;;;;;;;2.83;1.60;;;13.20;91.50;;;;;;5405151;26;20264;-71
2024/04/25 10:49:07;;;;;;;3.77;1.63;;;13.20;90.60;;;;;;5404863;26;20513;-73
2024/04/25 10:51:37;;;;;;;3.63;2.03;;;12.80;90.40;;;;;;5405211;26;20460;-72
2024/04/25 10:54:02;;;;;;;3.43;1.70;;;12.80;91.90;;;;;;5405189;26;20557;-71
2024/04/25 10:56:29;;;;;;;2.60;1.63;;;12.90;90.40;;;;;;5404993;26;20443;-72
2024/04/25 10:58:56;;;;;;;3.90;1.83;;;12.80;89.40;;;;;;5404849;26;20517;-71
2024/04/25 11:01:28;;;;;;;2.20;1.53;;;12.60;87.10;;;;;;5406131;26;20442;-74
2024/04/25 11:03:59;;;;;;;4.95;1.95;;;13.10;88.00;;;;;;5405134;26;20841;-74
2024/04/25 11:06:26;;;;;;;2.90;2.07;;;13.30;86.50;;;;;;5404796;26;20638;-73
2024/04/25 11:08:53;;;;;;;1.60;1.30;;;13.00;85.50;;;;;;5404924;26;20453;-75
2024/04/25 11:11:20;;;;;;;1.87;1.37;;;12.90;85.10;;;;;;5404596;26;20560;-75
2024/04/25 11:13:46;;;;;;;2.30;1.37;;;12.60;86.20;;;;;;5404727;26;20457;-72
2024/04/25 11:16:11;;;;;;;2.53;1.60;;;12.50;88.70;;;;;;5404635;26;20438;-75
2024/04/25 11:18:37;;;;;;;3.90;1.80;;;12.90;89.10;;;;;;5404359;26;20281;-72
2024/04/25 11:21:06;;;;;;;3.47;2.00;;;12.70;85.90;;;;;;5404673;26;20275;-71
2024/04/25 11:23:32;;;;;;;1.83;1.50;;;13.20;86.10;;;;;;5404567;26;20505;-75
2024/04/25 11:26:02;;;;;;;1.30;1.10;;;14.20;86.40;;;;;;5432405;26;20494;-75
2024/04/25 11:28:31;;;;;;;3.23;1.57;;;15.10;78.00;;;;;;5404385;26;20464;-75
2024/04/25 11:30:58;;;;;;;2.47;1.50;;;15.60;72.60;;;;;;5404233;26;20453;-72
2024/04/25 11:33:25;;;;;;;2.33;1.03;;;16.10;72.10;;;;;;5404428;26;20442;-77
2024/04/25 11:35:51;;;;;;;3.37;1.50;;;16.70;67.70;;;;;;5406140;26;20438;-75
2024/04/25 11:38:16;;;;;;;6.47;1.63;;;16.40;68.90;;;;;;5404379;26;21089;-78
2024/04/25 11:40:43;;;;;;;1.63;1.23;;;15.60;67.50;;;;;;5403512;26;20617;-73
2024/04/25 11:43:12;;;;;;;1.70;1.57;;;16.70;70.00;;;;;;5403807;26;20664;-74
2024/04/25 11:45:37;;;;;;;2.77;1.50;;;16.10;69.10;;;;;;5403233;26;20443;-70
2024/04/25 11:48:07;;;;;;;2.03;1.30;;;15.00;67.80;;;;;;5403130;26;20536;-72
2024/04/25 11:50:33;;;;;;;1.70;1.37;;;14.20;69.10;;;;;;5402731;26;20225;-74
2024/04/25 11:52:58;;;;;;;4.00;1.80;;;14.20;69.90;;;;;;5403139;26;21136;-70
2024/04/25 11:55:24;;;;;;;2.23;1.20;;;14.20;69.60;;;;;;5402188;26;20458;-73
2024/04/25 11:57:50;;;;;;;2.33;1.50;;;13.50;68.00;;;;;;5403190;26;20231;-70
2024/04/25 12:00:15;;;;;;;5.73;1.47;;;13.30;71.00;;;;;;5403271;26;20234;-73
2024/04/25 12:02:41;;;;;;;1.63;1.47;;;13.30;72.60;;;;;;5403203;26;20213;-71
2024/04/25 12:05:08;;;;;;;1.33;1.07;;;13.80;77.30;;;;;;5404106;26;20235;-74
2024/04/25 12:07:34;;;;;;;2.03;1.30;;;14.00;72.80;;;;;;5403253;26;20573;-74
2024/04/25 12:09:59;;;;;;;3.63;1.80;;;14.30;72.80;;;;;;5403363;26;20470;-74
2024/04/25 12:12:25;;;;;;;1.53;1.33;;;14.60;71.00;;;;;;5403052;26;20444;-74
2024/04/25 12:14:51;;;;;;;3.80;1.63;;;14.60;71.90;;;;;;5402209;26;20226;-72
2024/04/25 12:17:16;;;;;;;1.63;1.53;;;14.80;73.00;;;;;;5402876;26;20753;-74
2024/04/25 12:19:42;;;;;;;1.87;1.40;;;14.50;70.00;;;;;;5400828;26;20446;-70
2024/04/25 12:22:08;;;;;;;1.93;1.37;;;14.70;72.30;;;;;;5403135;26;20254;-73
2024/04/25 12:24:33;;;;;;;3.30;1.70;;;14.50;70.70;;;;;;5401822;26;20803;-72
2024/04/25 12:26:59;;;;;;;2.97;1.50;;;13.90;70.10;;;;;;5402949;26;20460;-75
2024/04/25 12:29:25;;;;;;;1.63;1.20;;;14.30;71.80;;;;;;5402556;26;20611;-74
2024/04/25 12:31:50;;;;;;;3.10;1.67;;;14.80;73.10;;;;;;5402976;26;20228;-75
2024/04/25 12:34:16;;;;;;;4.10;1.40;;;15.00;68.80;;;;;;5402568;26;20316;-73
2024/04/25 12:36:42;;;;;;;2.90;1.50;;;15.00;70.70;;;;;;5403435;26;20230;-76
2024/04/25 12:39:07;;;;;;;3.50;1.70;;;15.60;70.50;;;;;;5402383;26;20647;-72
2024/04/25 12:41:33;;;;;;;2.10;1.40;;;15.30;69.40;;;;;;5402801;26;20224;-75
2024/04/25 12:43:59;;;;;;;3.03;1.50;;;15.80;72.20;;;;;;5400975;26;20683;-70
2024/04/25 12:46:25;;;;;;;3.47;1.73;;;16.10;68.20;;;;;;5403044;26;20444;-70
2024/04/25 12:48:50;;;;;;;1.93;1.40;;;15.70;65.70;;;;;;5402823;26;20442;-73
2024/04/25 12:51:16;;;;;;;1.90;1.43;;;15.00;66.00;;;;;;5402903;26;20302;-68
2024/04/25 12:53:41;;;;;;;1.87;1.37;;;15.10;68.60;;;;;;5402465;26;20268;-73
2024/04/25 12:56:07;;;;;;;2.60;1.57;;;14.80;71.70;;;;;;5404271;26;20224;-82